Iantha, Missouri
Current Conditions -  °F | °C
As of 7:35 AM on Friday 19 Dec 2014 (Local Time) from KPTS Reporting Station
Haze Haze  
Wind Chill: 36°   Ceiling: 300
Heat Index: 36°   Visibility: 2.5mi
Dew Point: 36°   Wind: 3mph
Humidity: 100%   Direction: 40°NE
Pressure: 30.24"   Gusts: NA
Location:  37.5121°N, 94.2674°W
Report Text: KPTS 191335Z AUTO 04003KT 2 1/2SM BR OVC003 02/02 A3024 RMK AO2 T00200021
Loading
Personal Weather Stations






























Interactive Weather Map New forecast layout! Learn more

10-Day Weather Forecast

Advertisements
Track Severe Weather on mobile